Time;durP1;ratioP1;P1;durP2;ratioP2;P2;SDS_P1;SDS_P2;PMS_P1;PMS_P2;Temp;Humidity;BMP_temperature;BMP_pressure;BME280_temperature;BME280_humidity;BME280_pressure;Samples;Min_cycle;Max_cycle;Signal;HPM_P1;HPM_P2
2020/12/19 00:00:45;;;;;;;4.05;3.47;;;;;;;7.72;61.07;101202.09;4317815;33;33679;-90
2020/12/19 00:03:14;;;;;;;3.78;3.42;;;;;;;7.50;62.28;101210.47;4305974;33;32228;-90
2020/12/19 00:05:45;;;;;;;6.97;4.03;;;;;;;7.58;62.18;101207.34;4306276;33;35340;-90
2020/12/19 00:08:16;;;;;;;6.53;4.45;;;;;;;7.56;62.65;101211.91;4306461;33;34316;-90
2020/12/19 00:10:44;;;;;;;9.65;4.70;;;;;;;7.48;63.27;101206.19;4305495;33;33011;-90
2020/12/19 00:13:12;;;;;;;10.93;4.57;;;;;;;7.58;63.03;101202.94;4317770;33;33456;-90
2020/12/19 00:15:55;;;;;;;11.15;4.60;;;;;;;7.56;62.46;101207.44;4307174;33;35362;-90
2020/12/19 00:18:23;;;;;;;;;;;;;;;7.47;62.64;101207.97;4311016;33;34132;-90
2020/12/19 00:21:06;;;;;;;12.25;5.80;;;;;;;7.57;62.49;101211.78;4333621;33;32794;-90
2020/12/19 00:23:34;;;;;;;8.18;4.50;;;;;;;7.39;63.11;101204.09;4332597;33;34121;-89
2020/12/19 00:26:03;;;;;;;7.60;3.22;;;;;;;7.61;62.36;101208.03;4320105;33;34877;-89
2020/12/19 00:28:30;;;;;;;;;;;;;;;7.05;63.85;101207.84;4332110;33;33904;-90
2020/12/19 00:31:13;;;;;;;5.03;4.03;;;;;;;7.15;63.73;101206.37;4342988;33;33558;-89
2020/12/19 00:33:44;;;;;;;3.85;3.05;;;;;;;7.42;62.87;101201.25;4332261;33;34184;-90
2020/12/19 00:36:19;;;;;;;10.73;5.20;;;;;;;7.43;62.78;101197.66;4332759;33;36110;-89
2020/12/19 00:38:56;;;;;;;;;;;;;;;7.05;64.02;101202.56;4332021;33;33849;-89
2020/12/19 00:41:25;;;;;;;2.70;2.53;;;;;;;7.35;62.96;101203.41;4331962;33;33905;-90
2020/12/19 00:43:56;;;;;;;7.28;3.97;;;;;;;7.42;62.41;101198.59;4319912;33;33327;-89
2020/12/19 00:46:26;;;;;;;5.10;3.47;;;;;;;7.11;63.64;101209.28;4332081;33;33982;-89
2020/12/19 00:49:04;;;;;;;;;;;;;;;7.10;64.05;101192.53;4332509;33;33279;-90
2020/12/19 00:51:31;;;;;;;4.18;3.17;;;;;;;7.51;62.48;101200.72;4344111;33;32429;-90
2020/12/19 00:54:07;;;;;;;4.12;2.67;;;;;;;7.49;62.55;101202.59;4332235;33;33332;-89
2020/12/19 00:56:38;;;;;;;4.32;2.87;;;;;;;7.28;63.37;101198.59;4308694;33;33750;-90
2020/12/19 00:59:08;;;;;;;2.08;1.27;;;;;;;7.31;63.27;101201.03;4332038;33;35425;-90
2020/12/19 01:01:36;;;;;;;5.32;3.42;;;;;;;7.27;63.32;101197.72;4331779;33;33164;-90
2020/12/19 01:04:03;;;;;;;15.52;4.20;;;;;;;7.27;63.34;101191.59;4344056;33;34927;-89
2020/12/19 01:06:32;;;;;;;6.82;5.05;;;;;;;7.25;63.17;101199.59;4332892;33;34909;-90
2020/12/19 01:09:19;;;;;;;7.53;3.53;;;;;;;6.73;64.86;101195.59;4321451;33;33588;-90
2020/12/19 01:11:47;;;;;;;7.35;4.97;;;;;;;6.48;66.00;101194.41;4343608;33;33717;-89
2020/12/19 01:14:15;;;;;;;4.55;3.28;;;;;;;7.02;64.27;101192.16;4331844;33;34341;-89
2020/12/19 01:17:03;;;;;;;;;;;;;;;7.00;64.32;101188.72;4333940;33;34503;-88
2020/12/19 01:19:38;;;;;;;3.75;2.97;;;;;;;6.95;64.38;101190.81;4331826;33;34068;-90
2020/12/19 01:22:07;;;;;;;3.85;2.83;;;;;;;6.79;64.96;101187.31;4308223;33;31939;-90
2020/12/19 01:24:39;;;;;;;4.07;3.28;;;;;;;6.59;65.88;101186.72;4320272;33;33064;-89
2020/12/19 01:27:10;;;;;;;8.40;4.57;;;;;;;6.55;66.04;101188.72;4319946;33;34473;-90
2020/12/19 01:29:38;;;;;;;5.15;3.60;;;;;;;6.86;65.16;101193.09;4309568;33;34814;-90
2020/12/19 01:32:07;;;;;;;6.22;2.15;;;;;;;6.97;64.90;101191.56;4334762;33;31295;-89
2020/12/19 01:34:36;;;;;;;6.68;3.00;;;;;;;7.23;64.04;101180.31;4309175;33;32543;-90
2020/12/19 01:37:17;;;;;;;4.93;4.07;;;;;;;7.13;64.15;101183.59;4333429;33;34632;-90
2020/12/19 01:40:05;;;;;;;6.22;4.28;;;;;;;7.18;64.04;101178.88;4311021;33;33484;-90
2020/12/19 01:42:34;;;;;;;5.00;2.70;;;;;;;7.04;64.29;101177.03;4321295;33;32584;-89
2020/12/19 01:45:03;;;;;;;5.25;3.97;;;;;;;6.76;65.00;101176.06;4321522;33;32948;-91
2020/12/19 01:47:32;;;;;;;5.70;4.47;;;;;;;7.10;64.02;101170.53;4321664;33;35659;-89
2020/12/19 01:50:08;;;;;;;5.15;3.67;;;;;;;7.17;63.62;101175.38;4322017;33;34012;-90
2020/12/19 01:52:39;;;;;;;4.82;3.80;;;;;;;7.08;64.29;101175.91;4321088;33;33697;-90
2020/12/19 01:55:12;;;;;;;6.90;3.87;;;;;;;7.41;62.96;101175.72;4309352;33;32688;-89
2020/12/19 01:57:41;;;;;;;5.00;4.30;;;;;;;7.48;62.49;101170.00;4321208;33;33963;-90
2020/12/19 02:00:15;;;;;;;5.85;4.00;;;;;;;7.35;62.62;101166.34;4321855;33;34080;-90
2020/12/19 02:03:02;;;;;;;5.62;2.53;;;;;;;7.12;63.58;101160.72;4310296;33;32411;-89
2020/12/19 02:05:35;;;;;;;8.60;5.68;;;;;;;7.09;63.71;101161.72;4332922;33;34897;-90
2020/12/19 02:08:15;;;;;;;10.75;3.42;;;;;;;7.27;63.25;101159.81;4310109;33;33430;-89
2020/12/19 02:10:43;;;;;;;6.62;4.37;;;;;;;6.77;64.61;101159.25;4307939;33;34017;-89
2020/12/19 02:13:11;;;;;;;7.95;3.45;;;;;;;6.79;64.87;101157.38;4321027;33;33720;-90
2020/12/19 02:15:43;;;;;;;7.00;4.35;;;;;;;6.96;64.36;101154.59;4320965;33;33891;-90
2020/12/19 02:18:16;;;;;;;6.75;3.92;;;;;;;6.91;64.41;101157.50;4328224;33;35021;-89
2020/12/19 02:20:59;;;;;;;4.68;3.17;;;;;;;7.02;63.97;101160.41;4343658;33;34163;-89
2020/12/19 02:23:29;;;;;;;7.70;4.50;;;;;;;7.07;63.58;101152.22;4330672;33;32983;-90
2020/12/19 02:26:17;;;;;;;9.75;3.78;;;;;;;7.00;63.93;101145.56;4318106;33;34047;-90
2020/12/19 02:28:46;;;;;;;3.45;2.35;;;;;;;7.06;63.53;101147.81;4332893;33;34382;-89
2020/12/19 02:31:15;;;;;;;7.20;5.03;;;;;;;6.78;64.45;101151.22;4333952;33;34083;-89
2020/12/19 02:33:58;;;;;;;7.57;5.65;;;;;;;6.95;64.25;101143.19;4322457;33;32215;-90
2020/12/19 02:36:27;;;;;;;3.97;3.00;;;;;;;7.04;63.93;101137.34;4333088;33;33416;-89
2020/12/19 02:38:54;;;;;;;4.12;3.00;;;;;;;6.85;64.56;101136.72;4333318;33;34832;-89
2020/12/19 02:41:26;;;;;;;4.30;3.25;;;;;;;7.10;63.93;101136.97;4332880;33;34235;-90
2020/12/19 02:43:54;;;;;;;6.50;5.10;;;;;;;7.20;63.95;101137.31;4332707;33;32618;-90
2020/12/19 02:46:23;;;;;;;6.65;4.32;;;;;;;7.17;63.92;101138.31;4345199;33;32933;-90
2020/12/19 02:48:51;;;;;;;3.65;2.92;;;;;;;7.19;63.76;101132.94;4321144;33;34645;-89
2020/12/19 02:51:20;;;;;;;7.25;4.43;;;;;;;7.29;63.40;101134.94;4345293;33;34053;-89
2020/12/19 02:53:49;;;;;;;6.55;4.30;;;;;;;7.36;63.05;101125.69;4344774;33;33787;-89
2020/12/19 02:56:19;;;;;;;5.75;2.83;;;;;;;7.23;63.71;101113.28;4345089;33;33565;-90
2020/12/19 02:58:47;;;;;;;9.55;4.22;;;;;;;7.17;63.97;101119.81;4333204;33;34425;-89
2020/12/19 03:01:16;;;;;;;4.70;4.35;;;;;;;7.27;63.20;101120.12;4333983;33;33403;-90
2020/12/19 03:04:05;;;;;;;5.60;3.20;;;;;;;7.68;61.55;101114.03;4322691;33;32642;-89
2020/12/19 03:06:40;;;;;;;5.70;4.90;;;;;;;6.77;64.14;101112.50;4333175;33;33660;-89
2020/12/19 03:09:08;;;;;;;4.20;3.40;;;;;;;6.44;65.65;101118.87;4345494;33;33970;-89
2020/12/19 03:11:37;;;;;;;6.28;3.15;;;;;;;6.55;65.26;101116.47;4344873;33;34365;-89
2020/12/19 03:14:12;;;;;;;6.45;3.05;;;;;;;6.30;66.81;101122.28;4334034;33;33385;-90
2020/12/19 03:16:40;;;;;;;7.32;4.85;;;;;;;6.53;66.07;101121.00;4320659;33;33722;-89
2020/12/19 03:19:09;;;;;;;4.10;2.97;;;;;;;6.53;66.07;101126.28;4332728;33;34522;-90
2020/12/19 03:21:45;;;;;;;3.25;2.80;;;;;;;6.45;65.91;101123.22;4332789;33;33888;-89
2020/12/19 03:24:17;;;;;;;4.87;3.92;;;;;;;6.44;66.48;101116.22;4320411;33;33822;-90
2020/12/19 03:27:05;;;;;;;7.28;4.97;;;;;;;6.65;65.56;101109.72;4319898;33;34608;-89
2020/12/19 03:29:32;;;;;;;3.83;3.20;;;;;;;6.66;65.51;101109.62;4320544;33;34085;-89
2020/12/19 03:32:01;;;;;;;2.97;2.72;;;;;;;7.05;64.26;101115.25;4334085;33;33147;-89
2020/12/19 03:34:30;;;;;;;4.75;3.12;;;;;;;7.11;63.94;101108.72;4333261;33;33569;-90
2020/12/19 03:36:59;;;;;;;6.68;3.20;;;;;;;7.18;63.84;101116.22;4344608;33;33521;-90
2020/12/19 03:39:27;;;;;;;6.90;4.62;;;;;;;7.22;63.69;101109.81;4332760;33;34999;-89
2020/12/19 03:41:59;;;;;;;6.75;4.45;;;;;;;7.12;64.04;101111.31;4321440;33;33301;-91
2020/12/19 03:44:27;;;;;;;7.93;6.45;;;;;;;7.17;63.96;101106.56;4320651;33;33774;-90
2020/12/19 03:46:56;;;;;;;6.05;3.22;;;;;;;7.10;64.06;101110.50;4344733;33;34103;-89
2020/12/19 03:49:25;;;;;;;6.22;3.47;;;;;;;7.27;63.42;101107.72;4344885;33;35588;-90
2020/12/19 03:51:59;;;;;;;7.50;4.37;;;;;;;7.30;63.34;101101.41;4320672;33;32753;-90
2020/12/19 03:54:46;;;;;;;11.15;4.12;;;;;;;7.34;63.22;101113.50;4345012;33;32715;-90
2020/12/19 03:57:30;;;;;;;16.10;4.62;;;;;;;7.29;63.36;101112.94;4333549;33;32329;-91
2020/12/19 03:59:57;;;;;;;6.05;3.60;;;;;;;7.42;63.00;101104.16;4344754;33;35271;-89
2020/12/19 04:02:25;;;;;;;;;;;;;;;7.38;63.25;101113.22;4320928;33;34295;-90
2020/12/19 04:04:54;;;;;;;5.30;4.20;;;;;;;7.53;62.86;101112.31;4344650;33;33074;-90
2020/12/19 04:07:41;;;;;;;2.97;2.67;;;;;;;7.41;63.17;101112.19;4332915;33;33504;-90
2020/12/19 04:10:16;;;;;;;7.82;4.57;;;;;;;7.41;63.11;101113.06;4332650;33;35633;-90
2020/12/19 04:13:00;;;;;;;4.30;1.73;;;;;;;7.44;62.98;101106.72;4322227;33;34472;-89
2020/12/19 04:15:29;;;;;;;5.40;2.65;;;;;;;7.37;63.09;101111.53;4344644;33;33430;-90
2020/12/19 04:18:04;;;;;;;6.10;4.43;;;;;;;7.42;62.80;101111.25;4320738;33;32476;-89
2020/12/19 04:20:33;;;;;;;5.82;4.40;;;;;;;7.32;63.14;101110.09;4331904;33;33784;-90
2020/12/19 04:23:01;;;;;;;6.05;2.85;;;;;;;7.40;62.96;101111.34;4332412;33;33979;-90
2020/12/19 04:25:28;;;;;;;6.57;3.45;;;;;;;7.31;63.24;101108.41;4320229;33;32027;-89
2020/12/19 04:27:58;;;;;;;5.70;2.80;;;;;;;7.44;62.69;101106.72;4332088;33;33440;-89
2020/12/19 04:30:26;;;;;;;4.15;2.40;;;;;;;7.43;62.83;101107.66;4344249;33;34317;-90
2020/12/19 04:32:55;;;;;;;2.75;1.98;;;;;;;7.44;62.79;101107.56;4332374;33;33253;-90
2020/12/19 04:35:25;;;;;;;9.57;4.20;;;;;;;7.48;62.62;101105.59;4332542;33;32187;-90
2020/12/19 04:37:54;;;;;;;4.57;2.90;;;;;;;7.48;62.65;101102.94;4329374;33;33606;-90
2020/12/19 04:40:22;;;;;;;6.12;5.35;;;;;;;7.49;62.62;101102.00;4341772;33;35383;-90
2020/12/19 04:42:50;;;;;;;;;;;;;;;7.56;62.43;101104.16;4329833;33;34376;-90
2020/12/19 04:45:18;;;;;;;3.35;3.05;;;;;;;7.43;62.91;101097.06;4332342;33;32521;-90
2020/12/19 04:47:48;;;;;;;3.70;3.17;;;;;;;7.37;63.06;101103.56;4331396;33;32665;-89
2020/12/19 04:50:32;;;;;;;4.28;3.83;;;;;;;7.36;63.25;101111.63;4332432;33;34494;-89
2020/12/19 04:52:59;;;;;;;11.57;5.55;;;;;;;7.46;62.85;101107.47;4332308;33;33837;-89
2020/12/19 04:55:27;;;;;;;3.75;3.37;;;;;;;7.42;62.94;101109.47;4332110;33;33920;-89
2020/12/19 04:57:57;;;;;;;4.15;2.92;;;;;;;7.13;64.16;101118.28;4331937;33;34225;-90
2020/12/19 05:00:24;;;;;;;7.07;3.92;;;;;;;7.54;62.79;101113.16;4331742;33;35364;-90
2020/12/19 05:03:16;;;;;;;4.65;3.55;;;;;;;7.48;62.90;101118.81;4333001;33;35436;-89
2020/12/19 05:05:51;;;;;;;8.95;3.00;;;;;;;7.39;62.95;101117.59;4334102;33;33424;-89
2020/12/19 05:08:23;;;;;;;4.82;3.80;;;;;;;7.33;63.33;101111.78;4321951;33;33021;-89
2020/12/19 05:10:50;;;;;;;5.75;3.05;;;;;;;7.43;63.20;101111.16;4321420;33;34310;-90
2020/12/19 05:13:21;;;;;;;7.47;4.65;;;;;;;7.42;63.30;101121.84;4333809;33;34419;-89
2020/12/19 05:15:50;;;;;;;3.92;2.45;;;;;;;7.26;64.03;101126.38;4333675;33;33898;-89
2020/12/19 05:18:20;;;;;;;7.60;5.35;;;;;;;7.40;63.25;101118.44;4321775;33;33678;-89
2020/12/19 05:20:49;;;;;;;12.98;4.25;;;;;;;7.42;63.39;101124.47;4345618;33;35173;-90
2020/12/19 05:23:21;;;;;;;6.75;4.15;;;;;;;7.24;64.23;101117.63;4333591;33;33622;-89
2020/12/19 05:25:56;;;;;;;16.15;8.38;;;;;;;7.00;65.20;101121.75;4322313;33;33290;-89
2020/12/19 05:28:25;;;;;;;5.22;2.92;;;;;;;6.98;65.39;101131.56;4332957;33;33334;-90
2020/12/19 05:30:58;;;;;;;6.35;3.90;;;;;;;7.19;64.61;101122.38;4333512;33;35003;-89
2020/12/19 05:33:35;;;;;;;4.97;3.83;;;;;;;6.98;65.14;101124.47;4334803;33;34186;-89
2020/12/19 05:36:21;;;;;;;7.12;4.75;;;;;;;6.82;65.64;101123.66;4321716;33;33702;-89
2020/12/19 05:38:50;;;;;;;11.02;3.60;;;;;;;6.60;66.06;101127.66;4309438;33;32715;-89
2020/12/19 05:41:22;;;;;;;8.77;2.53;;;;;;;6.67;66.58;101129.84;4334807;33;34477;-90
2020/12/19 05:52:24;;;;;;;3.80;2.58;;;;;;;6.57;67.08;101136.59;4255117;33;33929;-91
2020/12/19 05:55:43;;;;;;;8.50;4.90;;;;;;;6.29;68.02;101136.44;4205285;33;34154;-91
2020/12/19 05:59:29;;;;;;;12.68;5.03;;;;;;;6.24;67.99;101133.19;4274237;33;35248;-91
2020/12/19 06:07:39;;;;;;;8.02;4.53;;;;;;;6.11;69.04;101142.72;4299053;33;36014;-91
2020/12/19 06:10:51;;;;;;;3.47;1.62;;;;;;;5.86;70.17;101146.78;4334010;33;35864;-91
2020/12/19 06:18:34;;;;;;;3.60;3.30;;;;;;;6.01;69.84;101138.03;4329829;32;35107;-91
2020/12/19 06:22:30;;;;;;;9.27;5.10;;;;;;;5.77;70.52;101141.97;4314967;33;35621;-90
2020/12/19 06:24:59;;;;;;;3.90;3.60;;;;;;;5.90;70.42;101141.25;4306597;33;34654;-90
2020/12/19 06:27:34;;;;;;;4.50;4.12;;;;;;;6.06;70.07;101142.13;4319744;33;34725;-90
2020/12/19 06:30:28;;;;;;;7.28;6.18;;;;;;;6.09;70.25;101146.38;4319765;33;31518;-90
2020/12/19 06:33:17;;;;;;;5.10;4.70;;;;;;;6.18;69.30;101148.53;4313345;33;33463;-91
2020/12/19 06:36:17;;;;;;;3.05;2.62;;;;;;;5.54;71.52;101147.59;4321602;33;35314;-92
2020/12/19 06:39:05;;;;;;;3.80;3.37;;;;;;;5.63;71.41;101155.03;4310500;33;34425;-89
2020/12/19 06:41:43;;;;;;;5.18;4.68;;;;;;;5.70;71.28;101149.34;4334515;33;33080;-91
2020/12/19 06:44:32;;;;;;;4.65;3.87;;;;;;;5.72;70.94;101149.25;4311165;33;32717;-91
2020/12/19 06:47:18;;;;;;;4.47;2.62;;;;;;;5.84;70.63;101151.28;4309413;33;34478;-91
2020/12/19 06:49:54;;;;;;;6.75;3.92;;;;;;;5.90;70.52;101146.53;4321015;33;33469;-91
2020/12/19 06:52:59;;;;;;;4.20;3.97;;;;;;;5.99;70.32;101151.34;4320757;33;32320;-92
2020/12/19 06:55:46;;;;;;;10.05;5.55;;;;;;;5.53;72.11;101156.44;4310830;33;33141;-92
2020/12/19 06:58:33;;;;;;;4.25;3.12;;;;;;;5.40;72.81;101155.37;4322119;33;34549;-92
2020/12/19 07:01:29;;;;;;;5.75;2.60;;;;;;;5.62;72.05;101161.25;4324109;33;35472;-91
2020/12/19 07:04:04;;;;;;;8.60;3.70;;;;;;;5.88;70.92;101160.75;4316351;33;32065;-94
2020/12/19 07:07:06;;;;;;;6.47;4.95;;;;;;;6.08;70.01;101164.00;4315180;33;34097;-93
2020/12/19 07:10:03;;;;;;;4.78;3.80;;;;;;;5.94;70.98;101163.91;4273115;33;34840;-93
2020/12/19 07:12:57;;;;;;;6.50;4.53;;;;;;;6.09;69.95;101167.53;4284580;33;34842;-91
2020/12/19 07:15:47;;;;;;;7.55;4.93;;;;;;;5.93;70.52;101167.50;4320614;33;32037;-91
2020/12/19 07:18:39;;;;;;;6.75;5.03;;;;;;;6.16;69.79;101171.53;4323735;33;32497;-91
2020/12/19 07:21:26;;;;;;;3.42;2.65;;;;;;;5.93;70.71;101172.78;4332809;33;35214;-91
2020/12/19 07:23:57;;;;;;;6.37;4.03;;;;;;;6.12;69.79;101169.97;4321031;33;34195;-90
2020/12/19 07:26:28;;;;;;;6.60;3.78;;;;;;;6.25;69.53;101171.03;4331157;33;33162;-90
2020/12/19 07:28:57;;;;;;;5.87;3.80;;;;;;;6.06;69.84;101178.25;4327768;33;32165;-90
2020/12/19 07:31:25;;;;;;;5.78;2.62;;;;;;;5.80;70.26;101171.69;4343734;32;34685;-90
2020/12/19 07:33:53;;;;;;;;;;;;;;;5.61;70.56;101176.22;4330913;33;33470;-91
2020/12/19 07:36:23;;;;;;;8.43;5.37;;;;;;;5.53;70.95;101172.28;4332349;33;32887;-90
2020/12/19 07:39:11;;;;;;;4.35;3.12;;;;;;;5.45;71.47;101169.19;4333038;33;33993;-92
2020/12/19 07:41:59;;;;;;;3.17;2.78;;;;;;;5.81;70.63;101164.66;4319407;33;33878;-91
2020/12/19 07:44:31;;;;;;;8.18;4.43;;;;;;;5.77;71.03;101174.47;4332493;33;33362;-90
2020/12/19 07:47:02;;;;;;;7.50;3.20;;;;;;;5.71;71.59;101173.97;4320755;33;32515;-91
2020/12/19 07:49:47;;;;;;;7.80;6.28;;;;;;;5.67;71.35;101169.78;4332638;33;33043;-91
2020/12/19 07:52:26;;;;;;;8.52;5.07;;;;;;;6.14;70.45;101170.78;4344073;33;35514;-91
2020/12/19 07:54:58;;;;;;;8.20;6.87;;;;;;;6.19;70.22;101169.59;4318785;33;33764;-91
2020/12/19 07:57:55;;;;;;;8.32;4.22;;;;;;;6.33;69.64;101167.03;4332254;33;33548;-90
2020/12/19 08:00:30;;;;;;;6.72;5.65;;;;;;;6.29;69.77;101160.22;4333116;33;32872;-90
2020/12/19 08:03:09;;;;;;;4.20;2.90;;;;;;;6.35;69.21;101170.44;4332358;33;34091;-91
2020/12/19 08:05:59;;;;;;;4.82;4.10;;;;;;;6.30;68.93;101163.69;4333355;33;33484;-90
2020/12/19 08:08:32;;;;;;;7.55;4.40;;;;;;;6.82;67.06;101158.03;4321208;33;33113;-90
2020/12/19 08:11:05;;;;;;;12.90;7.32;;;;;;;7.07;65.41;101155.69;4310092;33;32265;-90
2020/12/19 08:13:43;;;;;;;3.95;3.15;;;;;;;6.68;67.15;101157.12;4322661;33;34327;-90
2020/12/19 08:16:32;;;;;;;6.97;2.37;;;;;;;6.71;66.50;101156.97;4331293;33;34539;-91
2020/12/19 08:19:04;;;;;;;2.40;2.08;;;;;;;6.80;65.82;101162.56;4331750;33;32570;-91
2020/12/19 08:21:34;;;;;;;4.95;3.83;;;;;;;6.39;67.29;101161.41;4332570;33;36517;-91
2020/12/19 08:24:22;;;;;;;4.90;3.45;;;;;;;6.32;67.50;101172.37;4331314;33;34798;-91
2020/12/19 08:27:27;;;;;;;3.75;2.95;;;;;;;5.93;69.26;101158.72;4323441;33;33783;-91
2020/12/19 08:30:29;;;;;;;8.30;5.20;;;;;;;6.41;67.93;101163.94;4336437;33;32654;-90
2020/12/19 08:33:17;;;;;;;4.20;3.62;;;;;;;6.46;67.10;101157.50;4324708;33;33569;-90
2020/12/19 08:36:13;;;;;;;4.80;4.43;;;;;;;6.01;69.85;101164.44;4333882;33;35488;-89
2020/12/19 08:39:16;;;;;;;3.15;2.15;;;;;;;5.83;70.23;101162.78;4324685;33;34169;-90
2020/12/19 08:42:11;;;;;;;5.43;5.05;;;;;;;6.31;68.61;101160.97;4337065;33;33547;-90
2020/12/19 08:44:39;;;;;;;6.53;3.58;;;;;;;6.25;67.67;101160.47;4334254;33;34415;-91
2020/12/19 08:47:27;;;;;;;7.55;3.40;;;;;;;6.16;68.16;101160.97;4309885;33;33711;-91
2020/12/19 08:50:02;;;;;;;6.15;3.40;;;;;;;6.04;68.88;101158.97;4307535;33;34628;-89
2020/12/19 08:52:33;;;;;;;4.80;3.05;;;;;;;6.10;68.11;101158.66;4332327;33;33498;-91
2020/12/19 08:55:09;;;;;;;3.03;1.70;;;;;;;5.85;69.03;101163.53;4330751;33;33963;-91
2020/12/19 08:57:52;;;;;;;5.65;5.10;;;;;;;5.58;70.12;101163.19;4332802;33;34530;-92
2020/12/19 09:00:42;;;;;;;4.37;3.92;;;;;;;5.70;70.40;101166.97;4332539;33;34656;-90
2020/12/19 09:03:36;;;;;;;5.68;3.22;;;;;;;5.99;69.85;101167.19;4313403;33;32076;-90
2020/12/19 09:06:06;;;;;;;3.85;3.55;;;;;;;5.91;69.51;101155.31;4319549;33;33882;-87
2020/12/19 09:08:54;;;;;;;3.05;2.72;;;;;;;6.00;69.19;101158.31;4332553;33;33960;-90
2020/12/19 09:11:35;;;;;;;3.20;2.78;;;;;;;6.02;69.12;101161.72;4332711;33;34052;-92
2020/12/19 09:14:11;;;;;;;4.35;2.72;;;;;;;6.24;68.21;101159.59;4332378;33;33968;-90
2020/12/19 09:16:54;;;;;;;3.72;3.50;;;;;;;5.96;68.44;101159.41;4329242;33;31674;-89
2020/12/19 09:19:37;;;;;;;6.07;3.70;;;;;;;6.10;67.87;101162.16;4340351;32;34185;-89
2020/12/19 09:22:22;;;;;;;5.37;3.42;;;;;;;6.14;67.71;101153.13;4321093;33;34219;-90
2020/12/19 09:25:00;;;;;;;3.00;2.62;;;;;;;6.20;67.32;101150.16;4320590;33;33787;-89
2020/12/19 09:27:41;;;;;;;2.67;2.08;;;;;;;5.78;68.62;101159.50;4330967;33;34193;-90
2020/12/19 09:30:30;;;;;;;4.28;1.98;;;;;;;5.61;69.05;101156.91;4321864;33;34028;-90
2020/12/19 09:33:13;;;;;;;2.20;2.00;;;;;;;5.78;68.59;101156.88;4310206;33;33318;-90
2020/12/19 09:35:56;;;;;;;3.17;2.65;;;;;;;6.38;66.30;101154.44;4331353;33;32595;-90
2020/12/19 09:38:46;;;;;;;3.45;3.12;;;;;;;6.35;67.06;101146.66;4331214;33;34057;-89
2020/12/19 09:41:18;;;;;;;4.12;2.47;;;;;;;6.78;64.54;101153.00;4318870;33;34155;-91
2020/12/19 09:44:27;;;;;;;3.75;2.37;;;;;;;6.39;66.23;101156.13;4308668;33;32868;-90
2020/12/19 09:47:15;;;;;;;3.58;1.62;;;;;;;6.28;67.01;101152.37;4321152;33;33963;-90
2020/12/19 09:49:51;;;;;;;4.35;2.60;;;;;;;5.36;69.42;101151.19;4333710;33;33684;-91
2020/12/19 09:52:21;;;;;;;4.12;2.67;;;;;;;6.29;67.14;101154.06;4320943;33;34067;-91
2020/12/19 09:55:08;;;;;;;5.68;5.07;;;;;;;6.33;66.69;101142.41;4335180;33;33441;-90
2020/12/19 09:57:51;;;;;;;;;;;;;;;6.77;64.78;101138.94;4333863;33;32852;-91
2020/12/19 10:00:33;;;;;;;5.82;3.33;;;;;;;6.22;66.82;101148.28;4343600;32;33818;-90
2020/12/19 10:03:23;;;;;;;3.25;3.00;;;;;;;6.19;66.73;101148.44;4326116;33;33832;-89
2020/12/19 10:05:58;;;;;;;3.80;2.95;;;;;;;6.27;66.14;101133.03;4318925;33;35127;-90
2020/12/19 10:08:41;;;;;;;5.47;3.15;;;;;;;6.04;67.22;101132.56;4337672;32;33086;-89
2020/12/19 10:11:25;;;;;;;3.28;2.75;;;;;;;5.78;68.46;101131.31;4336056;33;32116;-90
2020/12/19 10:14:08;;;;;;;1.85;1.75;;;;;;;5.93;68.31;101127.88;4332879;33;35104;-90
2020/12/19 10:16:51;;;;;;;2.53;2.28;;;;;;;5.82;69.03;101124.97;4325473;33;33393;-89
2020/12/19 10:19:39;;;;;;;2.28;2.17;;;;;;;5.87;67.49;101122.09;4321268;33;32204;-90
2020/12/19 10:22:11;;;;;;;1.50;1.23;;;;;;;5.89;67.50;101126.31;4332778;33;33623;-89
2020/12/19 10:24:41;;;;;;;3.85;3.20;;;;;;;5.69;68.28;101131.78;4343843;32;35224;-89
2020/12/19 10:27:12;;;;;;;2.25;2.15;;;;;;;5.71;67.87;101129.06;4311303;33;33858;-90
2020/12/19 10:29:59;;;;;;;;;;;;;;;5.74;67.53;101128.91;4334404;33;33294;-89
2020/12/19 10:32:42;;;;;;;5.10;3.92;;;;;;;5.75;67.69;101130.59;4344254;32;32874;-89
2020/12/19 10:35:13;;;;;;;6.30;3.50;;;;;;;5.63;68.48;101126.84;4321249;33;33946;-89
2020/12/19 10:38:00;;;;;;;2.50;2.30;;;;;;;5.75;67.88;101128.84;4320946;33;33177;-90
2020/12/19 10:40:34;;;;;;;3.10;2.87;;;;;;;5.84;67.72;101132.78;4320510;33;33200;-90
2020/12/19 10:43:05;;;;;;;5.57;2.62;;;;;;;5.46;69.71;101130.47;4333595;33;32606;-89
2020/12/19 10:45:54;;;;;;;2.85;2.65;;;;;;;5.74;68.25;101119.22;4323068;33;35186;-90
2020/12/19 10:48:42;;;;;;;3.40;3.15;;;;;;;6.12;67.03;101118.00;4321388;33;34002;-90
2020/12/19 10:51:27;;;;;;;2.72;2.28;;;;;;;6.50;65.57;101116.72;4344045;32;32798;-90
2020/12/19 10:54:14;;;;;;;1.35;1.17;;;;;;;6.37;65.64;101109.56;4335137;32;34924;-90
2020/12/19 10:56:56;;;;;;;1.48;1.20;;;;;;;5.98;67.25;101117.06;4334644;33;35589;-90
2020/12/19 10:59:29;;;;;;;2.67;2.08;;;;;;;5.81;67.63;101111.84;4343031;32;34211;-89
2020/12/19 11:02:02;;;;;;;6.85;4.43;;;;;;;5.90;67.73;101109.56;4314298;33;32421;-89
2020/12/19 11:04:45;;;;;;;4.50;2.42;;;;;;;6.00;67.81;101109.91;4326632;33;33781;-89
2020/12/19 11:07:15;;;;;;;6.10;2.67;;;;;;;5.60;68.85;101105.88;4356059;32;34629;-90
2020/12/19 11:09:42;;;;;;;6.32;3.30;;;;;;;5.47;69.79;101107.47;4345441;32;34884;-89
2020/12/19 11:12:12;;;;;;;2.08;1.98;;;;;;;5.47;69.64;101095.22;4332506;33;33347;-90
2020/12/19 11:14:49;;;;;;;;;;;;;;;5.46;70.40;101098.78;4331733;33;32823;-90
2020/12/19 11:17:36;;;;;;;2.45;2.17;;;;;;;5.83;68.77;101097.63;4343537;33;35765;-90
2020/12/19 11:20:07;;;;;;;4.70;3.83;;;;;;;6.02;68.17;101090.41;4332498;33;34737;-90
2020/12/19 11:22:35;;;;;;;3.58;2.78;;;;;;;5.92;67.93;101089.19;4319665;33;32925;-91
2020/12/19 11:25:24;;;;;;;2.75;2.50;;;;;;;5.71;68.72;101084.19;4322319;33;34197;-90
2020/12/19 11:28:14;;;;;;;3.60;3.10;;;;;;;5.84;68.16;101083.47;4325506;32;34407;-89
2020/12/19 11:30:50;;;;;;;4.78;2.50;;;;;;;5.59;69.04;101087.50;4321449;33;33966;-89
2020/12/19 11:33:19;;;;;;;3.60;3.25;;;;;;;5.69;68.56;101083.44;4319205;33;32225;-89
2020/12/19 11:35:51;;;;;;;5.22;3.35;;;;;;;5.61;68.75;101075.06;4332195;33;33422;-88
2020/12/19 11:38:21;;;;;;;3.40;2.70;;;;;;;5.37;70.03;101076.34;4320802;33;35416;-89
2020/12/19 11:40:50;;;;;;;4.75;2.83;;;;;;;5.44;69.01;101067.19;4319684;33;33342;-89
2020/12/19 11:43:19;;;;;;;5.28;3.97;;;;;;;5.51;68.28;101066.78;4328267;33;33499;-89
2020/12/19 11:45:47;;;;;;;;;;;;;;;5.46;69.22;101059.19;4304842;33;34106;-89
2020/12/19 11:48:14;;;;;;;3.45;2.42;;;;;;;6.10;66.64;101056.50;4344677;33;35592;-89
2020/12/19 11:50:43;;;;;;;;;;;;;;;6.04;66.56;101061.25;4308455;33;34060;-88
2020/12/19 11:53:27;;;;;;;3.22;2.12;;;;;;;5.86;66.02;101057.00;4342921;32;32606;-89
2020/12/19 11:56:03;;;;;;;6.77;3.63;;;;;;;5.44;67.94;101061.91;4328808;33;34019;-89
2020/12/19 11:58:51;;;;;;;3.65;3.33;;;;;;;5.48;68.37;101059.03;4339822;32;35669;-89
2020/12/19 12:01:30;;;;;;;8.77;5.12;;;;;;;5.40;68.73;101057.75;4317728;33;34524;-89
2020/12/19 12:04:13;;;;;;;3.65;2.65;;;;;;;5.40;69.31;101057.75;4331655;33;31725;-89
2020/12/19 12:06:42;;;;;;;4.68;4.10;;;;;;;5.23;69.81;101056.91;4332223;33;31750;-89
2020/12/19 12:09:19;;;;;;;3.10;2.87;;;;;;;5.12;69.96;101056.63;4332074;33;34575;-89
2020/12/19 12:12:06;;;;;;;8.93;4.12;;;;;;;5.09;70.69;101049.72;4331136;33;32922;-89
2020/12/19 12:14:43;;;;;;;11.35;4.50;;;;;;;5.27;70.14;101050.56;4329446;33;33449;-89
2020/12/19 12:17:14;;;;;;;8.73;5.05;;;;;;;5.27;70.50;101048.75;4317771;33;32060;-89
2020/12/19 12:19:46;;;;;;;1.50;1.45;;;;;;;5.18;70.11;101051.88;4329280;33;35550;-89
2020/12/19 12:22:30;;;;;;;6.22;4.43;;;;;;;5.05;70.22;101053.47;4333629;33;33849;-89
2020/12/19 12:24:59;;;;;;;8.95;3.55;;;;;;;4.96;70.84;101050.44;4331261;33;32582;-89
2020/12/19 12:27:30;;;;;;;1.77;1.45;;;;;;;5.05;71.20;101049.94;4318922;33;33484;-89
2020/12/19 12:30:13;;;;;;;5.50;4.43;;;;;;;5.42;69.06;101044.44;4331210;33;35516;-90
2020/12/19 12:33:02;;;;;;;4.35;2.50;;;;;;;5.30;69.43;101043.34;4310075;33;34506;-89
2020/12/19 12:35:33;;;;;;;6.22;2.58;;;;;;;5.24;69.79;101045.41;4332068;33;32501;-88
2020/12/19 12:38:05;;;;;;;3.58;3.28;;;;;;;5.48;69.17;101043.19;4333338;33;33900;-90
2020/12/19 12:40:59;;;;;;;2.72;2.37;;;;;;;5.60;68.56;101047.81;4332120;33;33720;-89
2020/12/19 12:43:45;;;;;;;3.12;2.33;;;;;;;5.23;69.78;101039.31;4332164;33;34415;-90